sensor_id;sensor_type;location;lat;lon;timestamp;temperature;humidity
80824;SHT35;70538;59.122;37.876;2023-10-09T00:00:08;4.76;77.92
80824;SHT35;70538;59.122;37.876;2023-10-09T00:02:54;4.78;78.04
80824;SHT35;70538;59.122;37.876;2023-10-09T00:05:21;4.78;77.69
80824;SHT35;70538;59.122;37.876;2023-10-09T00:08:05;4.76;77.63
80824;SHT35;70538;59.122;37.876;2023-10-09T00:10:33;4.72;77.52
80824;SHT35;70538;59.122;37.876;2023-10-09T00:13:05;4.73;77.59
80824;SHT35;70538;59.122;37.876;2023-10-09T00:15:36;4.67;77.40
80824;SHT35;70538;59.122;37.876;2023-10-09T00:18:03;4.67;77.47
80824;SHT35;70538;59.122;37.876;2023-10-09T00:20:39;4.64;77.39
80824;SHT35;70538;59.122;37.876;2023-10-09T00:23:10;4.61;77.49
80824;SHT35;70538;59.122;37.876;2023-10-09T00:25:49;4.59;77.54
80824;SHT35;70538;59.122;37.876;2023-10-09T00:28:36;4.52;77.77
80824;SHT35;70538;59.122;37.876;2023-10-09T00:31:05;4.51;77.77
80824;SHT35;70538;59.122;37.876;2023-10-09T00:33:35;4.47;77.70
80824;SHT35;70538;59.122;37.876;2023-10-09T00:36:04;4.45;77.75
80824;SHT35;70538;59.122;37.876;2023-10-09T00:38:38;4.50;77.94
80824;SHT35;70538;59.122;37.876;2023-10-09T00:41:13;4.48;77.74
80824;SHT35;70538;59.122;37.876;2023-10-09T00:43:47;4.48;77.83
80824;SHT35;70538;59.122;37.876;2023-10-09T00:46:18;4.51;77.80
80824;SHT35;70538;59.122;37.876;2023-10-09T00:48:57;4.51;77.68
80824;SHT35;70538;59.122;37.876;2023-10-09T00:51:32;4.51;77.59
80824;SHT35;70538;59.122;37.876;2023-10-09T00:54:05;4.50;77.44
80824;SHT35;70538;59.122;37.876;2023-10-09T00:56:35;4.50;77.36
80824;SHT35;70538;59.122;37.876;2023-10-09T00:59:07;4.50;77.38
80824;SHT35;70538;59.122;37.876;2023-10-09T01:01:37;4.54;77.34
80824;SHT35;70538;59.122;37.876;2023-10-09T01:04:07;4.52;77.28
80824;SHT35;70538;59.122;37.876;2023-10-09T01:06:41;4.51;77.21
80824;SHT35;70538;59.122;37.876;2023-10-09T01:09:14;4.57;77.30
80824;SHT35;70538;59.122;37.876;2023-10-09T01:11:44;4.55;77.40
80824;SHT35;70538;59.122;37.876;2023-10-09T01:14:35;4.55;77.17
80824;SHT35;70538;59.122;37.876;2023-10-09T01:17:09;4.57;77.34
80824;SHT35;70538;59.122;37.876;2023-10-09T01:19:37;4.59;77.21
80824;SHT35;70538;59.122;37.876;2023-10-09T01:22:05;4.58;77.05
80824;SHT35;70538;59.122;37.876;2023-10-09T01:24:42;4.55;77.23
80824;SHT35;70538;59.122;37.876;2023-10-09T01:27:11;4.52;77.29
80824;SHT35;70538;59.122;37.876;2023-10-09T01:29:43;4.57;77.31
80824;SHT35;70538;59.122;37.876;2023-10-09T01:32:14;4.54;77.45
80824;SHT35;70538;59.122;37.876;2023-10-09T01:34:46;4.50;77.60
80824;SHT35;70538;59.122;37.876;2023-10-09T01:37:19;4.50;77.63
80824;SHT35;70538;59.122;37.876;2023-10-09T01:39:52;4.47;77.65
80824;SHT35;70538;59.122;37.876;2023-10-09T01:42:20;4.41;77.80
80824;SHT35;70538;59.122;37.876;2023-10-09T01:44:58;4.40;77.98
80824;SHT35;70538;59.122;37.876;2023-10-09T01:47:26;4.42;78.23
80824;SHT35;70538;59.122;37.876;2023-10-09T01:49:59;4.38;78.41
80824;SHT35;70538;59.122;37.876;2023-10-09T01:52:33;4.38;78.37
80824;SHT35;70538;59.122;37.876;2023-10-09T01:55:03;4.33;78.41
80824;SHT35;70538;59.122;37.876;2023-10-09T01:57:41;4.31;78.70
80824;SHT35;70538;59.122;37.876;2023-10-09T02:00:12;4.36;78.88
80824;SHT35;70538;59.122;37.876;2023-10-09T02:02:50;4.31;78.88
80824;SHT35;70538;59.122;37.876;2023-10-09T02:05:18;4.31;79.10
80824;SHT35;70538;59.122;37.876;2023-10-09T02:07:46;4.34;79.25
80824;SHT35;70538;59.122;37.876;2023-10-09T02:10:24;4.36;79.19
80824;SHT35;70538;59.122;37.876;2023-10-09T02:12:56;4.33;79.45
80824;SHT35;70538;59.122;37.876;2023-10-09T02:15:30;4.31;79.43
80824;SHT35;70538;59.122;37.876;2023-10-09T02:23:29;4.33;79.68
80824;SHT35;70538;59.122;37.876;2023-10-09T02:26:08;4.38;79.76
80824;SHT35;70538;59.122;37.876;2023-10-09T02:28:36;4.41;79.72
80824;SHT35;70538;59.122;37.876;2023-10-09T02:31:11;4.45;79.60
80824;SHT35;70538;59.122;37.876;2023-10-09T02:33:40;4.42;79.56
80824;SHT35;70538;59.122;37.876;2023-10-09T02:36:08;4.42;79.62
80824;SHT35;70538;59.122;37.876;2023-10-09T02:38:36;4.41;79.76
80824;SHT35;70538;59.122;37.876;2023-10-09T02:41:08;4.45;79.75
80824;SHT35;70538;59.122;37.876;2023-10-09T02:43:41;4.45;79.93
80824;SHT35;70538;59.122;37.876;2023-10-09T02:46:15;4.48;80.05
80824;SHT35;70538;59.122;37.876;2023-10-09T02:48:49;4.48;79.99
80824;SHT35;70538;59.122;37.876;2023-10-09T02:51:21;4.44;80.12
80824;SHT35;70538;59.122;37.876;2023-10-09T02:53:56;4.42;80.38
80824;SHT35;70538;59.122;37.876;2023-10-09T02:56:26;4.44;80.55
80824;SHT35;70538;59.122;37.876;2023-10-09T02:59:10;4.40;80.44
80824;SHT35;70538;59.122;37.876;2023-10-09T03:01:40;4.45;80.69
80824;SHT35;70538;59.122;37.876;2023-10-09T03:04:08;4.45;80.67
80824;SHT35;70538;59.122;37.876;2023-10-09T03:06:42;4.50;80.79
80824;SHT35;70538;59.122;37.876;2023-10-09T03:09:20;4.55;80.62
80824;SHT35;70538;59.122;37.876;2023-10-09T03:11:59;4.61;80.47
80824;SHT35;70538;59.122;37.876;2023-10-09T03:14:33;4.61;80.46
80824;SHT35;70538;59.122;37.876;2023-10-09T03:17:04;4.55;80.56
80824;SHT35;70538;59.122;37.876;2023-10-09T03:19:32;4.54;80.47
80824;SHT35;70538;59.122;37.876;2023-10-09T03:22:09;4.58;80.52
80824;SHT35;70538;59.122;37.876;2023-10-09T03:24:40;4.58;80.51
80824;SHT35;70538;59.122;37.876;2023-10-09T03:27:17;4.58;80.31
80824;SHT35;70538;59.122;37.876;2023-10-09T03:29:46;4.55;80.33
80824;SHT35;70538;59.122;37.876;2023-10-09T03:32:18;4.55;80.33
80824;SHT35;70538;59.122;37.876;2023-10-09T03:34:47;4.57;80.35
80824;SHT35;70538;59.122;37.876;2023-10-09T03:37:19;4.59;80.09
80824;SHT35;70538;59.122;37.876;2023-10-09T03:39:56;4.59;79.95
80824;SHT35;70538;59.122;37.876;2023-10-09T03:42:23;4.59;79.98
80824;SHT35;70538;59.122;37.876;2023-10-09T03:44:52;4.59;79.75
80824;SHT35;70538;59.122;37.876;2023-10-09T03:47:24;4.61;79.86
80824;SHT35;70538;59.122;37.876;2023-10-09T03:49:55;4.61;79.78
80824;SHT35;70538;59.122;37.876;2023-10-09T03:52:23;4.59;79.77
80824;SHT35;70538;59.122;37.876;2023-10-09T03:54:55;4.65;79.70
80824;SHT35;70538;59.122;37.876;2023-10-09T03:57:23;4.67;79.43
80824;SHT35;70538;59.122;37.876;2023-10-09T03:59:52;4.68;79.21
80824;SHT35;70538;59.122;37.876;2023-10-09T04:02:20;4.69;79.18
80824;SHT35;70538;59.122;37.876;2023-10-09T04:04:50;4.72;79.00
80824;SHT35;70538;59.122;37.876;2023-10-09T04:07:18;4.69;78.81
80824;SHT35;70538;59.122;37.876;2023-10-09T04:09:46;4.67;78.77
80824;SHT35;70538;59.122;37.876;2023-10-09T04:12:18;4.67;78.90
80824;SHT35;70538;59.122;37.876;2023-10-09T04:14:53;4.68;78.96
80824;SHT35;70538;59.122;37.876;2023-10-09T04:17:31;4.71;78.82
80824;SHT35;70538;59.122;37.876;2023-10-09T04:20:04;4.71;78.95
80824;SHT35;70538;59.122;37.876;2023-10-09T04:22:47;4.72;78.77
80824;SHT35;70538;59.122;37.876;2023-10-09T04:25:33;4.73;78.71
80824;SHT35;70538;59.122;37.876;2023-10-09T04:28:10;4.71;78.41
80824;SHT35;70538;59.122;37.876;2023-10-09T04:30:54;4.69;78.30
80824;SHT35;70538;59.122;37.876;2023-10-09T04:33:23;4.71;78.26
80824;SHT35;70538;59.122;37.876;2023-10-09T04:36:04;4.72;78.44
80824;SHT35;70538;59.122;37.876;2023-10-09T04:39:04;4.72;78.45
80824;SHT35;70538;59.122;37.876;2023-10-09T04:41:33;4.73;78.59
80824;SHT35;70538;59.122;37.876;2023-10-09T04:44:22;4.79;78.68
80824;SHT35;70538;59.122;37.876;2023-10-09T04:47:12;4.79;78.45
80824;SHT35;70538;59.122;37.876;2023-10-09T04:49:42;4.75;78.30
80824;SHT35;70538;59.122;37.876;2023-10-09T04:52:18;4.75;78.46
80824;SHT35;70538;59.122;37.876;2023-10-09T04:55:07;4.76;78.64
80824;SHT35;70538;59.122;37.876;2023-10-09T05:00:18;4.86;78.35
80824;SHT35;70538;59.122;37.876;2023-10-09T05:02:57;4.87;77.85
80824;SHT35;70538;59.122;37.876;2023-10-09T05:05:27;4.85;77.67
80824;SHT35;70538;59.122;37.876;2023-10-09T05:08:17;4.86;77.66
80824;SHT35;70538;59.122;37.876;2023-10-09T05:10:52;4.92;77.80
80824;SHT35;70538;59.122;37.876;2023-10-09T05:13:34;4.96;77.61
80824;SHT35;70538;59.122;37.876;2023-10-09T05:16:16;4.97;77.48
80824;SHT35;70538;59.122;37.876;2023-10-09T05:18:55;5.00;77.32
80824;SHT35;70538;59.122;37.876;2023-10-09T05:21:27;5.06;77.06
80824;SHT35;70538;59.122;37.876;2023-10-09T05:24:05;5.06;77.19
80824;SHT35;70538;59.122;37.876;2023-10-09T05:26:49;5.06;76.89
80824;SHT35;70538;59.122;37.876;2023-10-09T05:29:23;5.10;76.79
80824;SHT35;70538;59.122;37.876;2023-10-09T05:32:02;5.07;76.57
80824;SHT35;70538;59.122;37.876;2023-10-09T05:34:49;5.09;76.42
80824;SHT35;70538;59.122;37.876;2023-10-09T05:37:32;5.12;76.30
80824;SHT35;70538;59.122;37.876;2023-10-09T05:40:11;5.13;75.66
80824;SHT35;70538;59.122;37.876;2023-10-09T05:42:47;5.12;75.43
80824;SHT35;70538;59.122;37.876;2023-10-09T05:45:27;5.14;75.38
80824;SHT35;70538;59.122;37.876;2023-10-09T05:48:13;5.14;74.88
80824;SHT35;70538;59.122;37.876;2023-10-09T05:50:42;5.14;74.56
80824;SHT35;70538;59.122;37.876;2023-10-09T05:53:31;5.12;73.77
80824;SHT35;70538;59.122;37.876;2023-10-09T05:56:14;5.16;73.72
80824;SHT35;70538;59.122;37.876;2023-10-09T05:59:00;5.16;73.28
80824;SHT35;70538;59.122;37.876;2023-10-09T06:01:34;5.17;73.25
80824;SHT35;70538;59.122;37.876;2023-10-09T06:04:20;5.19;73.01
80824;SHT35;70538;59.122;37.876;2023-10-09T06:06:48;5.14;72.72
80824;SHT35;70538;59.122;37.876;2023-10-09T06:09:39;5.13;72.73
80824;SHT35;70538;59.122;37.876;2023-10-09T06:12:24;5.16;72.86
80824;SHT35;70538;59.122;37.876;2023-10-09T06:15:02;5.20;72.66
80824;SHT35;70538;59.122;37.876;2023-10-09T06:18:09;5.26;72.30
80824;SHT35;70538;59.122;37.876;2023-10-09T06:21:09;5.26;71.90
80824;SHT35;70538;59.122;37.876;2023-10-09T06:24:07;5.35;71.70
80824;SHT35;70538;59.122;37.876;2023-10-09T06:26:46;5.35;71.36
80824;SHT35;70538;59.122;37.876;2023-10-09T06:29:30;5.37;71.14
80824;SHT35;70538;59.122;37.876;2023-10-09T06:32:05;5.40;71.02
80824;SHT35;70538;59.122;37.876;2023-10-09T06:34:56;5.38;70.80
80824;SHT35;70538;59.122;37.876;2023-10-09T06:37:43;5.42;70.69
80824;SHT35;70538;59.122;37.876;2023-10-09T06:40:33;5.42;70.58
80824;SHT35;70538;59.122;37.876;2023-10-09T06:43:20;5.47;70.51
80824;SHT35;70538;59.122;37.876;2023-10-09T06:45:55;5.51;69.05
80824;SHT35;70538;59.122;37.876;2023-10-09T06:48:27;5.48;68.97
80824;SHT35;70538;59.122;37.876;2023-10-09T06:51:09;5.38;69.26
80824;SHT35;70538;59.122;37.876;2023-10-09T06:53:54;5.31;69.76
80824;SHT35;70538;59.122;37.876;2023-10-09T06:56:26;5.31;70.16
80824;SHT35;70538;59.122;37.876;2023-10-09T07:01:26;5.47;69.73
80824;SHT35;70538;59.122;37.876;2023-10-09T07:04:06;5.55;69.63
80824;SHT35;70538;59.122;37.876;2023-10-09T07:06:48;5.72;69.53
80824;SHT35;70538;59.122;37.876;2023-10-09T07:09:17;5.86;69.01
80824;SHT35;70538;59.122;37.876;2023-10-09T07:11:50;5.96;68.41
80824;SHT35;70538;59.122;37.876;2023-10-09T07:14:20;6.09;68.10
80824;SHT35;70538;59.122;37.876;2023-10-09T07:19:31;6.31;67.59
80824;SHT35;70538;59.122;37.876;2023-10-09T07:22:02;6.48;67.49
80824;SHT35;70538;59.122;37.876;2023-10-09T07:24:31;6.73;67.09
80824;SHT35;70538;59.122;37.876;2023-10-09T07:27:11;6.96;65.84
80824;SHT35;70538;59.122;37.876;2023-10-09T07:29:43;6.92;64.06
80824;SHT35;70538;59.122;37.876;2023-10-09T07:32:18;6.89;64.02
80824;SHT35;70538;59.122;37.876;2023-10-09T07:34:49;6.79;64.57
80824;SHT35;70538;59.122;37.876;2023-10-09T07:37:25;6.75;64.21
80824;SHT35;70538;59.122;37.876;2023-10-09T07:39:58;6.58;64.68
80824;SHT35;70538;59.122;37.876;2023-10-09T07:42:26;6.52;65.07
80824;SHT35;70538;59.122;37.876;2023-10-09T07:45:11;6.56;65.51
80824;SHT35;70538;59.122;37.876;2023-10-09T07:47:59;6.81;64.93
80824;SHT35;70538;59.122;37.876;2023-10-09T07:50:36;6.93;64.37
80824;SHT35;70538;59.122;37.876;2023-10-09T07:53:16;7.06;62.85
80824;SHT35;70538;59.122;37.876;2023-10-09T07:55:54;7.06;63.08
80824;SHT35;70538;59.122;37.876;2023-10-09T07:58:23;6.95;63.12
80824;SHT35;70538;59.122;37.876;2023-10-09T08:00:55;6.68;64.45
80824;SHT35;70538;59.122;37.876;2023-10-09T08:03:43;6.44;66.16
80824;SHT35;70538;59.122;37.876;2023-10-09T08:06:16;6.33;67.26
80824;SHT35;70538;59.122;37.876;2023-10-09T08:09:03;6.30;68.08
80824;SHT35;70538;59.122;37.876;2023-10-09T08:11:51;6.41;68.62
80824;SHT35;70538;59.122;37.876;2023-10-09T08:14:42;6.45;68.23
80824;SHT35;70538;59.122;37.876;2023-10-09T08:17:17;6.46;68.27
80824;SHT35;70538;59.122;37.876;2023-10-09T08:19:55;6.64;67.63
80824;SHT35;70538;59.122;37.876;2023-10-09T08:22:24;6.83;67.31
80824;SHT35;70538;59.122;37.876;2023-10-09T08:24:52;6.90;66.88
80824;SHT35;70538;59.122;37.876;2023-10-09T08:27:27;6.90;66.84
80824;SHT35;70538;59.122;37.876;2023-10-09T08:29:59;6.81;67.44
80824;SHT35;70538;59.122;37.876;2023-10-09T08:32:46;6.75;67.82
80824;SHT35;70538;59.122;37.876;2023-10-09T08:35:56;6.68;67.07
80824;SHT35;70538;59.122;37.876;2023-10-09T08:38:32;6.48;67.91
80824;SHT35;70538;59.122;37.876;2023-10-09T08:41:08;6.37;68.73
80824;SHT35;70538;59.122;37.876;2023-10-09T08:43:55;6.26;68.93
80824;SHT35;70538;59.122;37.876;2023-10-09T08:46:27;6.21;69.37
80824;SHT35;70538;59.122;37.876;2023-10-09T08:48:58;6.37;69.69
80824;SHT35;70538;59.122;37.876;2023-10-09T08:51:36;6.68;69.60
80824;SHT35;70538;59.122;37.876;2023-10-09T08:54:06;7.00;68.05
80824;SHT35;70538;59.122;37.876;2023-10-09T08:56:39;7.00;67.07
80824;SHT35;70538;59.122;37.876;2023-10-09T08:59:18;6.85;67.30
80824;SHT35;70538;59.122;37.876;2023-10-09T09:01:48;6.56;67.55
80824;SHT35;70538;59.122;37.876;2023-10-09T09:04:39;6.40;68.29
80824;SHT35;70538;59.122;37.876;2023-10-09T09:07:28;6.17;67.74
80824;SHT35;70538;59.122;37.876;2023-10-09T09:10:00;5.96;68.19
80824;SHT35;70538;59.122;37.876;2023-10-09T09:12:49;5.86;68.67
80824;SHT35;70538;59.122;37.876;2023-10-09T09:15:27;5.83;68.41
80824;SHT35;70538;59.122;37.876;2023-10-09T09:18:13;5.83;68.55
80824;SHT35;70538;59.122;37.876;2023-10-09T09:20:45;5.90;68.61
80824;SHT35;70538;59.122;37.876;2023-10-09T09:23:18;5.95;68.39
80824;SHT35;70538;59.122;37.876;2023-10-09T09:25:51;6.07;68.71
80824;SHT35;70538;59.122;37.876;2023-10-09T09:28:28;6.16;68.18
80824;SHT35;70538;59.122;37.876;2023-10-09T09:31:08;6.18;68.33
80824;SHT35;70538;59.122;37.876;2023-10-09T09:33:41;6.26;67.12
80824;SHT35;70538;59.122;37.876;2023-10-09T09:36:12;6.21;67.39
80824;SHT35;70538;59.122;37.876;2023-10-09T09:38:39;6.42;67.24
80824;SHT35;70538;59.122;37.876;2023-10-09T09:41:19;6.48;67.04
80824;SHT35;70538;59.122;37.876;2023-10-09T09:43:55;6.52;67.31
80824;SHT35;70538;59.122;37.876;2023-10-09T09:46:33;6.52;67.31
80824;SHT35;70538;59.122;37.876;2023-10-09T09:49:05;6.45;67.41
80824;SHT35;70538;59.122;37.876;2023-10-09T09:51:44;6.34;67.69
80824;SHT35;70538;59.122;37.876;2023-10-09T09:54:14;6.34;67.51
80824;SHT35;70538;59.122;37.876;2023-10-09T09:56:54;6.30;67.81
80824;SHT35;70538;59.122;37.876;2023-10-09T09:59:26;6.27;67.95
80824;SHT35;70538;59.122;37.876;2023-10-09T10:01:58;6.23;68.65
80824;SHT35;70538;59.122;37.876;2023-10-09T10:04:38;6.34;68.89
80824;SHT35;70538;59.122;37.876;2023-10-09T10:07:07;6.35;68.82
80824;SHT35;70538;59.122;37.876;2023-10-09T10:09:41;6.35;68.53
80824;SHT35;70538;59.122;37.876;2023-10-09T10:12:13;6.30;67.86
80824;SHT35;70538;59.122;37.876;2023-10-09T10:20:28;7.48;67.24
80824;SHT35;70538;59.122;37.876;2023-10-09T10:23:18;8.27;63.73
80824;SHT35;70538;59.122;37.876;2023-10-09T10:25:47;8.20;62.12
80824;SHT35;70538;59.122;37.876;2023-10-09T10:28:19;7.86;62.84
80824;SHT35;70538;59.122;37.876;2023-10-09T10:31:07;7.50;63.21
80824;SHT35;70538;59.122;37.876;2023-10-09T10:36:24;7.11;64.82
80824;SHT35;70538;59.122;37.876;2023-10-09T10:39:07;7.27;65.26
80824;SHT35;70538;59.122;37.876;2023-10-09T10:41:58;7.41;64.92
80824;SHT35;70538;59.122;37.876;2023-10-09T10:44:33;7.31;65.06
80824;SHT35;70538;59.122;37.876;2023-10-09T10:47:12;7.23;65.52
80824;SHT35;70538;59.122;37.876;2023-10-09T10:49:54;7.11;65.80
80824;SHT35;70538;59.122;37.876;2023-10-09T10:52:27;7.07;66.35
80824;SHT35;70538;59.122;37.876;2023-10-09T10:55:16;7.10;66.59
80824;SHT35;70538;59.122;37.876;2023-10-09T10:58:17;7.43;65.79
80824;SHT35;70538;59.122;37.876;2023-10-09T11:00:55;7.41;64.43
80824;SHT35;70538;59.122;37.876;2023-10-09T11:03:25;7.24;64.58
80824;SHT35;70538;59.122;37.876;2023-10-09T11:06:27;7.01;65.39
80824;SHT35;70538;59.122;37.876;2023-10-09T11:09:07;7.01;66.12
80824;SHT35;70538;59.122;37.876;2023-10-09T11:12:04;7.28;65.48
80824;SHT35;70538;59.122;37.876;2023-10-09T11:14:50;7.94;64.68
80824;SHT35;70538;59.122;37.876;2023-10-09T11:17:36;8.77;61.99
80824;SHT35;70538;59.122;37.876;2023-10-09T11:20:06;9.23;60.10
80824;SHT35;70538;59.122;37.876;2023-10-09T11:22:53;8.94;59.29
80824;SHT35;70538;59.122;37.876;2023-10-09T11:25:44;8.85;60.36
80824;SHT35;70538;59.122;37.876;2023-10-09T11:28:23;9.19;59.48
80824;SHT35;70538;59.122;37.876;2023-10-09T11:31:08;9.07;58.82
80824;SHT35;70538;59.122;37.876;2023-10-09T11:33:52;8.76;59.18
80824;SHT35;70538;59.122;37.876;2023-10-09T11:36:21;8.37;59.43
80824;SHT35;70538;59.122;37.876;2023-10-09T11:39:00;7.96;61.02
80824;SHT35;70538;59.122;37.876;2023-10-09T11:42:04;7.71;62.01
80824;SHT35;70538;59.122;37.876;2023-10-09T11:44:45;7.58;62.10
80824;SHT35;70538;59.122;37.876;2023-10-09T11:47:22;7.48;62.26
80824;SHT35;70538;59.122;37.876;2023-10-09T11:49:56;7.47;62.40
80824;SHT35;70538;59.122;37.876;2023-10-09T11:52:58;7.78;62.74
80824;SHT35;70538;59.122;37.876;2023-10-09T11:55:46;8.72;60.03
80824;SHT35;70538;59.122;37.876;2023-10-09T11:58:16;8.93;58.62
80824;SHT35;70538;59.122;37.876;2023-10-09T12:00:54;8.86;58.29
80824;SHT35;70538;59.122;37.876;2023-10-09T12:03:32;8.73;59.04
80824;SHT35;70538;59.122;37.876;2023-10-09T12:06:02;9.00;58.62
80824;SHT35;70538;59.122;37.876;2023-10-09T12:08:34;9.26;58.24
80824;SHT35;70538;59.122;37.876;2023-10-09T12:11:03;10.00;55.20
80824;SHT35;70538;59.122;37.876;2023-10-09T12:13:31;10.30;52.95
80824;SHT35;70538;59.122;37.876;2023-10-09T12:15:59;11.09;52.66
80824;SHT35;70538;59.122;37.876;2023-10-09T12:18:27;11.81;50.42
80824;SHT35;70538;59.122;37.876;2023-10-09T12:20:55;12.45;49.39
80824;SHT35;70538;59.122;37.876;2023-10-09T12:23:30;13.05;47.31
80824;SHT35;70538;59.122;37.876;2023-10-09T12:26:03;13.39;45.96
80824;SHT35;70538;59.122;37.876;2023-10-09T12:28:32;13.51;44.83
80824;SHT35;70538;59.122;37.876;2023-10-09T12:31:02;13.67;43.54
80824;SHT35;70538;59.122;37.876;2023-10-09T12:33:30;13.74;43.67
80824;SHT35;70538;59.122;37.876;2023-10-09T12:35:58;13.98;43.31
80824;SHT35;70538;59.122;37.876;2023-10-09T12:38:30;13.83;42.10
80824;SHT35;70538;59.122;37.876;2023-10-09T12:41:05;12.93;43.88
80824;SHT35;70538;59.122;37.876;2023-10-09T12:43:47;11.99;45.96
80824;SHT35;70538;59.122;37.876;2023-10-09T12:46:15;11.31;47.07
80824;SHT35;70538;59.122;37.876;2023-10-09T12:48:45;10.75;48.96
80824;SHT35;70538;59.122;37.876;2023-10-09T12:51:16;10.31;50.25
80824;SHT35;70538;59.122;37.876;2023-10-09T12:53:45;10.14;50.56
80824;SHT35;70538;59.122;37.876;2023-10-09T12:56:25;9.82;51.49
80824;SHT35;70538;59.122;37.876;2023-10-09T12:59:05;9.76;52.62
80824;SHT35;70538;59.122;37.876;2023-10-09T13:01:34;10.12;53.12
80824;SHT35;70538;59.122;37.876;2023-10-09T13:04:12;10.85;50.88
80824;SHT35;70538;59.122;37.876;2023-10-09T13:06:43;11.13;48.50
80824;SHT35;70538;59.122;37.876;2023-10-09T13:09:14;10.97;48.52
80824;SHT35;70538;59.122;37.876;2023-10-09T13:11:45;10.68;49.72
80824;SHT35;70538;59.122;37.876;2023-10-09T13:14:16;10.38;50.31
80824;SHT35;70538;59.122;37.876;2023-10-09T13:16:49;9.85;51.14
80824;SHT35;70538;59.122;37.876;2023-10-09T13:19:21;9.32;52.33
80824;SHT35;70538;59.122;37.876;2023-10-09T13:21:52;8.94;53.39
80824;SHT35;70538;59.122;37.876;2023-10-09T13:24:20;8.65;54.48
80824;SHT35;70538;59.122;37.876;2023-10-09T13:26:58;8.38;55.29
80824;SHT35;70538;59.122;37.876;2023-10-09T13:29:26;8.17;56.03
80824;SHT35;70538;59.122;37.876;2023-10-09T13:31:55;8.02;56.67
80824;SHT35;70538;59.122;37.876;2023-10-09T13:34:30;7.96;57.09
80824;SHT35;70538;59.122;37.876;2023-10-09T13:37:00;7.87;57.38
80824;SHT35;70538;59.122;37.876;2023-10-09T13:39:42;7.83;57.80
80824;SHT35;70538;59.122;37.876;2023-10-09T13:42:21;7.75;58.03
80824;SHT35;70538;59.122;37.876;2023-10-09T13:44:53;7.69;58.32
80824;SHT35;70538;59.122;37.876;2023-10-09T13:47:24;7.56;59.01
80824;SHT35;70538;59.122;37.876;2023-10-09T13:49:59;7.52;59.14
80824;SHT35;70538;59.122;37.876;2023-10-09T13:52:32;7.47;59.66
80824;SHT35;70538;59.122;37.876;2023-10-09T13:55:00;7.45;60.06
80824;SHT35;70538;59.122;37.876;2023-10-09T13:57:43;7.40;60.60
80824;SHT35;70538;59.122;37.876;2023-10-09T14:00:14;7.31;60.86
80824;SHT35;70538;59.122;37.876;2023-10-09T14:03:01;7.18;61.14
80824;SHT35;70538;59.122;37.876;2023-10-09T14:05:31;7.11;61.48
80824;SHT35;70538;59.122;37.876;2023-10-09T14:08:01;7.06;61.66
80824;SHT35;70538;59.122;37.876;2023-10-09T14:10:31;6.93;62.26
80824;SHT35;70538;59.122;37.876;2023-10-09T14:12:59;6.90;62.33
80824;SHT35;70538;59.122;37.876;2023-10-09T14:15:27;6.86;62.62
80824;SHT35;70538;59.122;37.876;2023-10-09T14:17:55;6.79;62.99
80824;SHT35;70538;59.122;37.876;2023-10-09T14:20:24;6.72;62.78
80824;SHT35;70538;59.122;37.876;2023-10-09T14:23:00;6.58;62.90
80824;SHT35;70538;59.122;37.876;2023-10-09T14:25:35;6.46;63.12
80824;SHT35;70538;59.122;37.876;2023-10-09T14:28:08;6.40;63.24
80824;SHT35;70538;59.122;37.876;2023-10-09T14:30:37;6.33;63.11
80824;SHT35;70538;59.122;37.876;2023-10-09T14:33:11;6.30;63.44
80824;SHT35;70538;59.122;37.876;2023-10-09T14:35:50;6.26;63.78
80824;SHT35;70538;59.122;37.876;2023-10-09T14:38:20;6.23;64.01
80824;SHT35;70538;59.122;37.876;2023-10-09T14:40:54;6.18;63.84
80824;SHT35;70538;59.122;37.876;2023-10-09T14:43:25;6.11;64.25
80824;SHT35;70538;59.122;37.876;2023-10-09T14:45:55;6.06;64.68
80824;SHT35;70538;59.122;37.876;2023-10-09T14:48:25;5.96;64.90
80824;SHT35;70538;59.122;37.876;2023-10-09T14:50:56;5.92;65.11
80824;SHT35;70538;59.122;37.876;2023-10-09T14:53:35;5.90;65.52
80824;SHT35;70538;59.122;37.876;2023-10-09T14:56:03;5.90;65.63
80824;SHT35;70538;59.122;37.876;2023-10-09T14:58:36;5.89;65.71
80824;SHT35;70538;59.122;37.876;2023-10-09T15:01:08;5.82;65.85
80824;SHT35;70538;59.122;37.876;2023-10-09T15:03:42;5.82;66.06
80824;SHT35;70538;59.122;37.876;2023-10-09T15:06:10;5.82;66.04
80824;SHT35;70538;59.122;37.876;2023-10-09T15:08:38;5.86;66.06
80824;SHT35;70538;59.122;37.876;2023-10-09T15:11:07;5.88;66.18
80824;SHT35;70538;59.122;37.876;2023-10-09T15:13:36;5.89;66.25
80824;SHT35;70538;59.122;37.876;2023-10-09T15:16:07;5.88;66.43
80824;SHT35;70538;59.122;37.876;2023-10-09T15:18:35;5.92;66.50
80824;SHT35;70538;59.122;37.876;2023-10-09T15:21:05;5.95;66.65
80824;SHT35;70538;59.122;37.876;2023-10-09T15:23:34;6.02;66.70
80824;SHT35;70538;59.122;37.876;2023-10-09T15:26:03;6.02;66.75
80824;SHT35;70538;59.122;37.876;2023-10-09T15:28:34;6.03;66.84
80824;SHT35;70538;59.122;37.876;2023-10-09T15:31:06;6.07;66.91
80824;SHT35;70538;59.122;37.876;2023-10-09T15:33:39;6.03;66.63
80824;SHT35;70538;59.122;37.876;2023-10-09T15:36:15;6.03;66.60
80824;SHT35;70538;59.122;37.876;2023-10-09T15:38:44;6.05;66.75
80824;SHT35;70538;59.122;37.876;2023-10-09T15:41:12;5.99;67.07
80824;SHT35;70538;59.122;37.876;2023-10-09T15:43:44;5.97;67.53
80824;SHT35;70538;59.122;37.876;2023-10-09T15:46:13;5.96;67.81
80824;SHT35;70538;59.122;37.876;2023-10-09T15:48:43;5.89;68.20
80824;SHT35;70538;59.122;37.876;2023-10-09T15:51:12;5.86;68.41
80824;SHT35;70538;59.122;37.876;2023-10-09T15:53:44;5.86;68.63
80824;SHT35;70538;59.122;37.876;2023-10-09T15:56:13;5.86;68.77
80824;SHT35;70538;59.122;37.876;2023-10-09T15:58:42;5.85;69.12
80824;SHT35;70538;59.122;37.876;2023-10-09T16:01:15;5.86;69.52
80824;SHT35;70538;59.122;37.876;2023-10-09T16:03:43;5.86;69.97
80824;SHT35;70538;59.122;37.876;2023-10-09T16:06:11;5.85;70.25
80824;SHT35;70538;59.122;37.876;2023-10-09T16:08:40;5.83;70.40
80824;SHT35;70538;59.122;37.876;2023-10-09T16:11:19;5.80;70.64
80824;SHT35;70538;59.122;37.876;2023-10-09T16:13:47;5.79;70.95
80824;SHT35;70538;59.122;37.876;2023-10-09T16:16:24;5.75;71.27
80824;SHT35;70538;59.122;37.876;2023-10-09T16:18:52;5.68;71.71
80824;SHT35;70538;59.122;37.876;2023-10-09T16:21:24;5.62;72.07
80824;SHT35;70538;59.122;37.876;2023-10-09T16:23:53;5.59;72.34
80824;SHT35;70538;59.122;37.876;2023-10-09T16:26:21;5.55;72.56
80824;SHT35;70538;59.122;37.876;2023-10-09T16:28:52;5.51;72.75
80824;SHT35;70538;59.122;37.876;2023-10-09T16:31:20;5.48;72.94
80824;SHT35;70538;59.122;37.876;2023-10-09T16:33:48;5.47;73.08
80824;SHT35;70538;59.122;37.876;2023-10-09T16:36:19;5.41;73.35
80824;SHT35;70538;59.122;37.876;2023-10-09T16:38:48;5.40;73.58
80824;SHT35;70538;59.122;37.876;2023-10-09T16:41:16;5.38;73.52